Time;durP1;ratioP1;P1;durP2;ratioP2;P2;SDS_P1;SDS_P2;PMS_P1;PMS_P2;Temp;Humidity;BMP_temperature;BMP_pressure;BME280_temperature;BME280_humidity;BME280_pressure;Samples;Min_cycle;Max_cycle;Signal;HPM_P1;HPM_P2
2024/01/04 00:00:33;;;;;;;0.50;0.20;;;;;;;5.06;66.03;90356.22;5073303;28;20024;-54
2024/01/04 00:02:58;;;;;;;0.80;0.20;;;;;;;5.02;66.73;90355.41;5073014;28;20051;-53
2024/01/04 00:05:24;;;;;;;1.08;0.10;;;;;;;4.96;67.20;90354.25;5072630;28;20104;-54
2024/01/04 00:07:50;;;;;;;1.60;0.10;;;;;;;4.97;67.37;90350.53;5072903;28;20037;-54
2024/01/04 00:10:17;;;;;;;0.35;0.10;;;;;;;4.95;67.82;90364.00;5072937;28;20037;-54
2024/01/04 00:12:44;;;;;;;0.22;0.10;;;;;;;4.92;68.29;90363.97;5070721;28;20397;-54
2024/01/04 00:15:10;;;;;;;0.85;0.10;;;;;;;4.90;69.06;90359.06;5072736;28;20031;-54
2024/01/04 00:17:36;;;;;;;0.40;0.10;;;;;;;4.86;69.33;90352.31;5072746;28;20104;-54
2024/01/04 00:20:02;;;;;;;1.55;0.17;;;;;;;4.87;69.89;90359.81;5071159;28;20036;-54
2024/01/04 00:22:28;;;;;;;0.80;0.22;;;;;;;4.80;70.40;90365.00;5072976;28;20081;-54
2024/01/04 00:24:54;;;;;;;0.45;0.10;;;;;;;4.80;70.49;90367.63;5072309;28;20045;-54
2024/01/04 00:27:19;;;;;;;0.65;0.17;;;;;;;4.80;70.80;90331.69;5072517;28;20037;-54
2024/01/04 00:29:45;;;;;;;0.15;0.00;;;;;;;4.82;70.67;90378.50;5054625;28;20115;-54
2024/01/04 00:32:11;;;;;;;0.80;0.20;;;;;;;4.71;71.93;90383.63;5072410;28;20028;-53
2024/01/04 00:34:36;;;;;;;0.22;0.08;;;;;;;4.63;73.59;90381.31;5037844;28;20453;-53
2024/01/04 00:37:04;;;;;;;0.22;0.10;;;;;;;4.49;75.37;90389.81;5087818;28;20128;-54
2024/01/04 00:39:30;;;;;;;1.13;0.10;;;;;;;4.35;76.73;90393.78;5072376;28;20028;-54
2024/01/04 00:41:57;;;;;;;0.20;0.10;;;;;;;4.26;77.86;90406.41;5071991;28;20036;-54
2024/01/04 00:44:23;;;;;;;1.27;0.10;;;;;;;4.22;78.76;90410.09;5054319;28;20036;-53
2024/01/04 00:46:49;;;;;;;1.85;0.20;;;;;;;4.12;79.28;90393.16;5072040;28;20485;-53
2024/01/04 00:49:14;;;;;;;1.00;0.10;;;;;;;4.04;79.14;90376.63;5072244;28;20024;-54
2024/01/04 00:51:41;;;;;;;0.00;0.00;;;;;;;4.02;78.91;90383.34;5069162;28;20126;-54
2024/01/04 00:54:06;;;;;;;1.17;0.17;;;;;;;4.05;76.65;90388.59;5047245;28;20039;-54
2024/01/04 00:56:33;;;;;;;0.22;0.08;;;;;;;4.12;77.65;90399.16;5071429;28;20421;-54
2024/01/04 00:59:02;;;;;;;0.40;0.00;;;;;;;4.12;77.16;90390.53;5070499;28;20043;-54
2024/01/04 01:01:30;;;;;;;0.45;0.08;;;;;;;4.12;75.75;90404.41;5053989;28;20043;-54
2024/01/04 01:03:57;;;;;;;5.63;2.40;;;;;;;4.23;74.37;90406.34;5053733;28;20029;-52
2024/01/04 01:06:23;;;;;;;14.35;6.65;;;;;;;4.58;72.21;90409.34;5071540;28;20460;-52
2024/01/04 01:08:48;;;;;;;0.63;0.10;;;;;;;4.52;71.80;90399.56;5071810;28;20025;-53
2024/01/04 01:11:14;;;;;;;2.20;0.43;;;;;;;4.47;72.42;90429.41;5071532;28;20116;-54
2024/01/04 01:13:40;;;;;;;1.25;0.15;;;;;;;4.41;73.64;90432.72;5087439;28;20514;-53
2024/01/04 01:16:05;;;;;;;1.05;0.20;;;;;;;4.31;73.68;90411.31;5071342;28;20036;-54
2024/01/04 01:18:31;;;;;;;0.63;0.13;;;;;;;4.26;73.39;90424.72;5071980;28;20017;-53
2024/01/04 01:20:57;;;;;;;3.25;0.20;;;;;;;4.27;73.35;90418.38;5071568;28;20028;-54
2024/01/04 01:23:23;;;;;;;1.27;0.20;;;;;;;4.29;73.02;90431.09;5053394;28;20779;-53
2024/01/04 01:25:48;;;;;;;0.70;0.10;;;;;;;4.26;72.38;90426.59;5070921;28;20028;-53
2024/01/04 01:28:14;;;;;;;0.68;0.10;;;;;;;4.20;73.02;90414.94;5053289;28;20036;-53
2024/01/04 01:30:40;;;;;;;1.50;0.30;;;;;;;4.16;72.14;90435.06;5053416;28;20036;-53
2024/01/04 01:33:05;;;;;;;0.30;0.10;;;;;;;4.15;71.83;90434.31;5071186;28;20043;-53
2024/01/04 01:35:31;;;;;;;0.40;0.10;;;;;;;4.17;71.47;90429.47;5052898;28;20028;-53
2024/01/04 01:37:57;;;;;;;0.43;0.20;;;;;;;4.18;70.81;90433.59;5053213;28;20032;-53
2024/01/04 01:40:22;;;;;;;1.30;0.10;;;;;;;4.19;70.47;90418.66;5086857;28;20036;-54
2024/01/04 01:42:48;;;;;;;0.57;0.17;;;;;;;4.20;70.50;90431.38;5086916;28;20032;-53
2024/01/04 01:45:14;;;;;;;1.15;0.20;;;;;;;4.21;69.85;90422.44;5086853;28;20025;-53
2024/01/04 01:47:41;;;;;;;0.88;0.20;;;;;;;4.25;69.55;90423.22;5053428;28;20039;-54
2024/01/04 01:50:07;;;;;;;0.70;0.10;;;;;;;4.30;68.15;90401.97;5071176;28;20043;-53
2024/01/04 01:52:35;;;;;;;0.60;0.15;;;;;;;4.35;68.45;90400.88;5053319;28;20397;-54
2024/01/04 01:55:01;;;;;;;3.88;0.50;;;;;;;4.38;68.16;90410.63;5053177;28;20035;-53
2024/01/04 01:57:31;;;;;;;0.95;0.40;;;;;;;4.38;68.96;90418.47;5052798;28;20029;-53
2024/01/04 01:59:57;;;;;;;0.25;0.10;;;;;;;4.39;69.46;90414.75;5053216;28;20704;-53
2024/01/04 02:02:23;;;;;;;1.05;0.20;;;;;;;4.42;69.72;90379.25;5068051;28;20024;-54
2024/01/04 02:04:49;;;;;;;1.30;0.10;;;;;;;4.39;70.80;90430.44;5084561;28;20122;-53
2024/01/04 02:07:14;;;;;;;0.25;0.00;;;;;;;4.32;71.79;90433.00;5086180;28;20099;-54
2024/01/04 02:09:40;;;;;;;0.30;0.10;;;;;;;4.25;72.70;90436.31;5070916;28;20075;-53
2024/01/04 02:12:09;;;;;;;0.57;0.00;;;;;;;4.23;73.34;90456.09;5086282;28;20032;-53
2024/01/04 02:14:35;;;;;;;0.10;0.10;;;;;;;4.13;74.75;90457.47;5062872;28;20272;-53
2024/01/04 02:17:00;;;;;;;0.20;0.00;;;;;;;4.05;75.10;90469.69;5070376;28;20032;-53
2024/01/04 02:19:27;;;;;;;0.10;0.00;;;;;;;4.01;75.16;90444.63;5052813;28;20124;-53
2024/01/04 02:21:52;;;;;;;0.95;0.08;;;;;;;3.94;74.71;90465.44;5069774;28;20048;-53
2024/01/04 02:24:18;;;;;;;2.47;0.20;;;;;;;3.96;74.54;90469.22;5067130;28;20039;-54
2024/01/04 02:26:44;;;;;;;0.57;0.08;;;;;;;4.00;73.54;90450.94;5070637;28;20032;-53
2024/01/04 02:29:09;;;;;;;1.55;0.15;;;;;;;4.05;72.79;90468.97;5070773;28;20086;-53
2024/01/04 02:31:35;;;;;;;0.75;0.20;;;;;;;4.08;70.57;90465.63;5062488;28;20394;-53
2024/01/04 02:34:00;;;;;;;0.10;0.00;;;;;;;4.13;70.75;90473.91;5052924;28;20128;-54
2024/01/04 02:36:26;;;;;;;1.58;0.17;;;;;;;4.14;69.54;90453.75;5070318;28;20035;-54
2024/01/04 02:38:51;;;;;;;0.38;0.10;;;;;;;4.15;69.05;90470.94;5086383;28;20474;-53
2024/01/04 02:41:17;;;;;;;0.45;0.13;;;;;;;4.18;69.59;90478.06;5070983;28;20489;-54
2024/01/04 02:43:42;;;;;;;0.85;0.20;;;;;;;4.23;68.72;90469.91;5070698;28;20082;-54
2024/01/04 02:46:08;;;;;;;1.25;0.10;;;;;;;4.31;69.35;90468.16;5070486;28;20513;-53
2024/01/04 02:48:33;;;;;;;1.25;0.20;;;;;;;4.35;69.43;90485.38;5073176;28;20028;-53
2024/01/04 02:50:59;;;;;;;0.95;0.17;;;;;;;4.30;71.60;90464.00;5084784;28;20044;-54
2024/01/04 02:53:24;;;;;;;0.82;0.10;;;;;;;4.24;71.47;90471.44;5074483;28;20028;-54
2024/01/04 02:55:50;;;;;;;0.30;0.00;;;;;;;4.17;72.99;90481.81;5056010;28;20482;-56
2024/01/04 02:58:16;;;;;;;1.00;0.03;;;;;;;4.11;71.54;90478.75;5089757;28;20192;-55
2024/01/04 03:00:41;;;;;;;2.00;0.10;;;;;;;4.07;71.18;90464.88;5074398;28;20074;-54
2024/01/04 03:03:07;;;;;;;0.70;0.15;;;;;;;4.07;70.52;90475.34;5074244;28;20047;-56
2024/01/04 03:05:32;;;;;;;0.80;0.13;;;;;;;4.09;68.91;90461.88;5073815;28;20512;-54
2024/01/04 03:07:58;;;;;;;1.25;0.22;;;;;;;4.14;nan;90474.66;5074136;28;20021;-54
2024/01/04 03:10:24;;;;;;;0.38;0.00;;;;;;;4.22;68.08;90473.66;5074030;28;20025;-54
2024/01/04 03:12:49;;;;;;;0.68;0.10;;;;;;;4.35;66.50;90497.72;5074019;28;20060;-55
2024/01/04 03:15:15;;;;;;;1.10;0.08;;;;;;;4.45;65.27;90478.78;5073867;28;20037;-54
2024/01/04 03:17:41;;;;;;;0.47;0.00;;;;;;;4.49;65.90;90492.66;5073887;28;20048;-54
2024/01/04 03:20:07;;;;;;;0.43;0.10;;;;;;;4.56;65.00;90473.66;5074021;28;20039;-55
2024/01/04 03:22:32;;;;;;;3.95;0.20;;;;;;;4.58;65.54;90477.41;5073511;28;20033;-55
2024/01/04 03:24:58;;;;;;;1.25;0.20;;;;;;;4.59;65.37;90478.16;5073763;28;20036;-54
2024/01/04 03:27:23;;;;;;;0.70;0.10;;;;;;;4.66;65.51;90472.25;5073660;28;20548;-54
2024/01/04 03:29:50;;;;;;;0.73;0.22;;;;;;;4.66;66.19;90473.00;5073802;28;20489;-54
2024/01/04 03:32:16;;;;;;;0.70;0.10;;;;;;;4.68;66.49;90464.78;5073542;28;20064;-56
2024/01/04 03:34:42;;;;;;;0.60;0.20;;;;;;;4.65;67.23;90468.88;5073903;28;20060;-54
2024/01/04 03:37:07;;;;;;;0.35;0.00;;;;;;;4.63;67.61;90492.03;5074087;28;20054;-54
2024/01/04 03:39:33;;;;;;;1.73;0.30;;;;;;;4.60;68.64;90495.38;5073611;28;20363;-54
2024/01/04 03:41:58;;;;;;;0.70;0.10;;;;;;;4.56;68.94;90502.44;5073643;28;20051;-55
2024/01/04 03:44:24;;;;;;;0.45;0.10;;;;;;;4.53;69.96;90490.81;5073293;28;20029;-54
2024/01/04 03:46:49;;;;;;;0.77;0.10;;;;;;;4.52;69.76;90488.56;5073248;28;20028;-55
2024/01/04 03:49:15;;;;;;;1.75;0.10;;;;;;;4.54;68.92;90500.22;5073483;28;20043;-55
2024/01/04 03:51:40;;;;;;;0.17;0.00;;;;;;;4.56;69.42;90490.09;5072895;28;20036;-55
2024/01/04 03:54:06;;;;;;;0.03;0.00;;;;;;;4.54;69.34;90494.19;5073287;28;20028;-54
2024/01/04 03:56:31;;;;;;;0.15;0.00;;;;;;;4.52;69.06;90494.56;5073238;28;20029;-54
2024/01/04 03:58:57;;;;;;;0.20;0.00;;;;;;;4.52;69.51;90512.13;5072863;28;20029;-54
2024/01/04 04:01:22;;;;;;;0.13;0.10;;;;;;;4.49;70.13;90505.00;5072967;28;20029;-54
2024/01/04 04:03:48;;;;;;;18.02;6.85;;;;;;;4.50;70.41;90507.25;5073014;28;20086;-54
2024/01/04 04:06:14;;;;;;;0.00;0.00;;;;;;;4.58;70.21;90490.50;5072858;28;20033;-55
2024/01/04 04:08:39;;;;;;;3.17;0.17;;;;;;;4.47;70.69;90513.19;5071144;28;20108;-55
2024/01/04 04:11:15;;;;;;;5.45;1.98;;;;;;;4.49;70.38;90518.09;5067528;28;20428;-52
2024/01/04 04:13:40;;;;;;;0.70;0.20;;;;;;;4.48;70.20;90522.56;5072414;28;20055;-54
2024/01/04 04:16:06;;;;;;;2.22;0.20;;;;;;;4.46;69.71;90532.63;5054926;28;20040;-54
2024/01/04 04:18:32;;;;;;;1.45;0.10;;;;;;;4.44;69.77;90540.09;5072393;28;20033;-55
2024/01/04 04:20:57;;;;;;;0.38;0.10;;;;;;;4.44;69.87;90529.63;5088449;28;20032;-54
2024/01/04 04:23:23;;;;;;;0.10;0.00;;;;;;;4.44;70.39;90534.84;5072742;28;20032;-54
2024/01/04 04:25:48;;;;;;;1.00;0.10;;;;;;;4.43;70.64;90549.06;5072625;28;20389;-57
2024/01/04 04:28:14;;;;;;;1.02;0.15;;;;;;;4.45;70.40;90544.22;5073233;28;20025;-56
2024/01/04 04:30:39;;;;;;;3.55;0.20;;;;;;;4.43;71.12;90556.16;5072795;28;20445;-54
2024/01/04 04:33:05;;;;;;;97.32;45.28;;;;;;;4.41;72.32;90558.38;5072534;28;20085;-51
2024/01/04 04:35:32;;;;;;;2.25;0.73;;;;;;;4.33;73.28;90565.38;5068135;28;20024;-54
2024/01/04 04:37:57;;;;;;;1.02;0.20;;;;;;;4.23;73.17;90563.38;5067206;28;20067;-55
2024/01/04 04:40:23;;;;;;;1.15;0.10;;;;;;;4.23;72.76;90552.91;5067578;28;20196;-55
2024/01/04 04:42:49;;;;;;;0.57;0.15;;;;;;;4.23;71.47;90556.28;5071400;28;20044;-55
2024/01/04 04:45:14;;;;;;;3.42;0.40;;;;;;;4.28;71.10;90563.09;5071046;28;20128;-54
2024/01/04 04:47:40;;;;;;;4.30;1.88;;;;;;;4.30;71.69;90563.47;5070710;28;20080;-54
2024/01/04 04:50:06;;;;;;;0.65;0.17;;;;;;;4.28;71.62;90557.84;5071299;28;20118;-54
2024/01/04 04:52:32;;;;;;;0.45;0.15;;;;;;;4.24;72.53;90562.25;5071067;28;20024;-55
2024/01/04 04:54:57;;;;;;;0.85;0.10;;;;;;;4.15;72.46;90559.91;5070895;28;20032;-54
2024/01/04 04:57:23;;;;;;;0.15;0.00;;;;;;;4.08;73.35;90589.34;5070584;28;20456;-57
2024/01/04 04:59:48;;;;;;;0.50;0.20;;;;;;;3.90;74.74;90591.69;5063735;28;20050;-54
2024/01/04 05:02:14;;;;;;;0.28;0.10;;;;;;;3.83;74.89;90588.25;5053181;28;20063;-54
2024/01/04 05:04:39;;;;;;;0.08;0.00;;;;;;;3.80;75.78;90594.94;5073839;28;20055;-55
2024/01/04 05:07:05;;;;;;;1.10;0.08;;;;;;;3.75;75.61;90595.22;5064565;28;20025;-54
2024/01/04 05:09:30;;;;;;;0.20;0.10;;;;;;;3.72;76.59;90595.16;5070283;28;20044;-55
2024/01/04 05:11:56;;;;;;;9.60;4.20;;;;;;;3.72;76.88;90609.00;5071098;28;20044;-52
2024/01/04 05:14:21;;;;;;;1.63;0.20;;;;;;;3.72;76.62;90601.16;5070967;28;20533;-56
2024/01/04 05:16:47;;;;;;;0.13;0.10;;;;;;;3.65;76.31;90612.25;4155416;28;10000616;-54
2024/01/04 05:19:12;;;;;;;0.20;0.10;;;;;;;3.64;77.33;90620.44;5071078;28;20040;-54
2024/01/04 05:21:38;;;;;;;0.75;0.20;;;;;;;3.59;77.51;90637.19;5094937;28;20036;-55
2024/01/04 05:24:05;;;;;;;0.63;0.10;;;;;;;3.52;78.16;90638.91;5071342;28;20033;-56
2024/01/04 05:26:31;;;;;;;3.17;0.20;;;;;;;3.49;78.92;90652.66;5078493;28;20488;-54
2024/01/04 05:28:57;;;;;;;1.20;0.30;;;;;;;3.44;78.42;90649.25;5071094;28;20038;-55
2024/01/04 05:31:22;;;;;;;3.15;0.88;;;;;;;3.40;78.53;90656.28;5071788;28;20036;-55
2024/01/04 05:33:48;;;;;;;0.98;0.20;;;;;;;3.34;78.89;90652.44;5070289;28;20060;-56
2024/01/04 05:36:14;;;;;;;0.90;0.30;;;;;;;3.29;79.16;90652.72;5078031;28;20035;-54
2024/01/04 05:38:39;;;;;;;4.80;1.50;;;;;;;3.33;79.77;90663.97;5086335;28;20074;-55
2024/01/04 05:41:05;;;;;;;0.85;0.20;;;;;;;3.38;79.29;90662.94;5078129;28;20429;-54
2024/01/04 05:43:33;;;;;;;0.82;0.20;;;;;;;3.36;79.37;90654.69;5071028;28;20381;-55
2024/01/04 05:46:01;;;;;;;1.85;0.30;;;;;;;3.34;80.11;90641.97;5077323;28;20033;-54
2024/01/04 05:48:27;;;;;;;2.47;0.35;;;;;;;3.34;79.54;90644.59;5070590;28;20044;-55
2024/01/04 05:50:53;;;;;;;1.65;0.20;;;;;;;3.31;79.64;90642.69;5069124;28;20354;-55
2024/01/04 05:53:18;;;;;;;2.33;0.45;;;;;;;3.30;79.73;90646.38;5070432;28;20035;-54
2024/01/04 05:55:44;;;;;;;1.40;0.10;;;;;;;3.28;80.48;90645.97;5076497;28;20012;-54
2024/01/04 05:58:10;;;;;;;0.93;0.17;;;;;;;3.30;80.19;90661.31;5053077;28;20380;-55
2024/01/04 06:00:35;;;;;;;178.98;101.20;;;;;;;3.34;80.19;90662.91;5058424;28;20089;-54
2024/01/04 06:03:01;;;;;;;1.67;0.30;;;;;;;3.35;80.36;90682.69;5070940;28;20043;-54
2024/01/04 06:05:27;;;;;;;0.47;0.20;;;;;;;3.30;80.06;90679.59;5079527;28;20320;-53
2024/01/04 06:07:52;;;;;;;1.05;0.40;;;;;;;3.29;80.94;90688.53;5082396;28;20032;-54
2024/01/04 06:10:18;;;;;;;2.05;0.50;;;;;;;3.29;80.65;90694.53;5090014;28;20746;-54
2024/01/04 06:12:44;;;;;;;1.15;0.20;;;;;;;3.29;79.82;90704.97;5073624;28;20424;-54
2024/01/04 06:15:10;;;;;;;1.05;0.40;;;;;;;3.30;79.86;90713.56;5076110;28;20408;-54
2024/01/04 06:17:35;;;;;;;1.65;0.35;;;;;;;3.28;80.12;90723.59;5085174;28;20028;-54
2024/01/04 06:20:01;;;;;;;1.52;0.20;;;;;;;3.22;80.88;90715.31;5074125;28;20059;-54
2024/01/04 06:22:26;;;;;;;0.55;0.30;;;;;;;3.21;81.11;90706.69;5076927;28;20030;-54
2024/01/04 06:24:52;;;;;;;0.10;0.10;;;;;;;3.24;81.43;90723.53;5070053;28;20033;-54
2024/01/04 06:27:18;;;;;;;1.42;0.22;;;;;;;3.22;80.86;90715.31;5085370;28;20447;-54
2024/01/04 06:29:44;;;;;;;0.98;0.20;;;;;;;3.26;80.73;90729.19;5090648;28;20040;-54
2024/01/04 06:32:10;;;;;;;1.90;0.22;;;;;;;3.23;81.23;90729.13;5074094;28;20123;-54
2024/01/04 06:34:35;;;;;;;0.88;0.20;;;;;;;3.23;81.08;90737.72;5079333;28;20123;-54
2024/01/04 06:37:01;;;;;;;1.00;0.10;;;;;;;3.27;80.37;90743.75;5082422;28;20051;-54
2024/01/04 06:39:28;;;;;;;2.25;0.30;;;;;;;3.29;80.16;90738.19;5090830;28;20092;-54
2024/01/04 06:41:54;;;;;;;2.28;0.40;;;;;;;3.36;79.71;90751.41;5073958;28;20031;-54
2024/01/04 06:44:19;;;;;;;1.70;0.20;;;;;;;3.41;78.69;90759.72;5064384;28;20509;-54
2024/01/04 06:46:45;;;;;;;2.53;0.25;;;;;;;3.44;78.59;90745.97;5102681;28;20020;-54
2024/01/04 06:49:11;;;;;;;1.02;0.13;;;;;;;3.47;78.32;90747.13;5078970;28;20490;-55
2024/01/04 06:51:36;;;;;;;0.00;0.00;;;;;;;3.50;78.58;90746.44;5053280;28;20481;-53
2024/01/04 06:54:02;;;;;;;1.17;0.20;;;;;;;3.50;77.91;90728.16;5073158;28;20036;-54
2024/01/04 06:56:28;;;;;;;2.15;0.30;;;;;;;3.48;77.38;90740.78;5074537;28;20021;-54
2024/01/04 06:58:54;;;;;;;0.63;0.10;;;;;;;3.46;77.23;90743.00;5070469;28;20059;-54
2024/01/04 07:01:20;;;;;;;3.90;0.52;;;;;;;3.46;76.77;90750.84;5069976;28;20113;-54
2024/01/04 07:03:46;;;;;;;0.65;0.30;;;;;;;3.52;76.13;90759.94;5076929;28;20480;-54
2024/01/04 07:06:13;;;;;;;1.88;0.50;;;;;;;3.60;75.96;90743.25;5075406;28;20418;-54
2024/01/04 07:08:38;;;;;;;1.75;0.30;;;;;;;3.62;75.99;90741.06;5082085;28;20024;-54
2024/01/04 07:11:07;;;;;;;1.67;0.45;;;;;;;3.68;74.96;90752.00;5060332;28;20082;-54
2024/01/04 07:13:34;;;;;;;2.28;0.57;;;;;;;3.73;74.59;90748.34;5085279;28;20039;-55
2024/01/04 07:16:03;;;;;;;0.60;0.20;;;;;;;3.79;74.67;90757.41;5090577;28;20034;-54
2024/01/04 07:18:28;;;;;;;1.13;0.30;;;;;;;3.82;74.24;90757.50;5074935;28;20116;-54
2024/01/04 07:20:54;;;;;;;2.63;0.40;;;;;;;3.81;73.55;90749.97;5079688;28;20036;-55
2024/01/04 07:23:20;;;;;;;1.65;0.30;;;;;;;3.84;74.19;90773.59;5076995;28;20443;-54
2024/01/04 07:25:45;;;;;;;0.88;0.30;;;;;;;3.86;72.96;90755.69;5068430;28;20492;-54
2024/01/04 07:28:11;;;;;;;2.10;0.25;;;;;;;3.86;73.17;90768.78;5078607;28;20047;-54
2024/01/04 07:30:36;;;;;;;2.85;0.30;;;;;;;3.85;72.39;90769.09;5068725;28;20065;-54
2024/01/04 07:33:03;;;;;;;2.35;0.30;;;;;;;3.83;73.04;90777.31;5076498;28;20032;-54
2024/01/04 07:35:29;;;;;;;3.25;0.35;;;;;;;3.82;72.97;90765.34;5089165;28;20032;-54
2024/01/04 07:37:54;;;;;;;3.25;0.50;;;;;;;3.80;72.29;90787.72;5076842;28;20043;-55
2024/01/04 07:40:20;;;;;;;7.63;0.80;;;;;;;3.83;71.41;90768.72;5085327;28;20103;-54
2024/01/04 07:42:45;;;;;;;4.88;0.75;;;;;;;3.90;70.67;90779.28;5084750;28;20081;-54
2024/01/04 07:45:11;;;;;;;3.08;0.65;;;;;;;3.92;70.96;90779.72;5088984;28;20107;-54
2024/01/04 07:47:36;;;;;;;2.25;0.50;;;;;;;3.96;71.55;90779.75;5081581;28;20044;-54
2024/01/04 07:50:04;;;;;;;3.50;0.63;;;;;;;3.95;70.94;90760.69;5073504;28;20036;-54
2024/01/04 07:52:29;;;;;;;3.90;0.60;;;;;;;3.99;70.41;90766.00;5072914;28;20479;-54
2024/01/04 07:54:55;;;;;;;3.08;0.70;;;;;;;4.09;70.59;90781.09;5089956;28;20058;-55
2024/01/04 07:57:21;;;;;;;1.63;0.40;;;;;;;4.33;69.27;90780.78;5081433;28;20525;-54
2024/01/04 07:59:46;;;;;;;3.60;0.77;;;;;;;4.53;67.74;90778.09;5082684;28;20032;-54
2024/01/04 08:02:12;;;;;;;2.60;0.65;;;;;;;4.57;67.73;90779.69;5085029;28;20024;-54
2024/01/04 08:04:37;;;;;;;6.65;0.68;;;;;;;4.71;67.26;90781.00;5083575;28;20540;-55
2024/01/04 08:07:04;;;;;;;2.75;0.35;;;;;;;4.91;66.16;90790.28;5093275;28;20536;-54
2024/01/04 08:09:29;;;;;;;3.08;0.77;;;;;;;5.35;64.71;90794.97;5087802;28;20162;-54
2024/01/04 08:11:55;;;;;;;2.30;0.45;;;;;;;5.36;64.61;90798.38;5084663;28;20040;-54
2024/01/04 08:14:20;;;;;;;2.83;0.30;;;;;;;5.25;64.67;90782.50;5083368;28;20039;-54
2024/01/04 08:16:46;;;;;;;1.55;0.32;;;;;;;5.16;65.64;90793.22;5082360;28;20381;-55
2024/01/04 08:19:12;;;;;;;2.83;0.40;;;;;;;5.16;64.73;90789.88;5071074;28;20489;-54
2024/01/04 08:21:37;;;;;;;1.90;0.25;;;;;;;5.10;65.26;90802.50;5082387;28;20028;-54
2024/01/04 08:24:03;;;;;;;2.17;0.60;;;;;;;5.10;65.70;90810.38;5072799;28;20032;-55
2024/01/04 08:26:29;;;;;;;2.00;0.40;;;;;;;5.01;66.07;90809.88;5087465;28;20529;-54
2024/01/04 08:28:54;;;;;;;2.60;0.50;;;;;;;4.93;65.78;90818.72;5091106;28;20035;-55
2024/01/04 08:31:20;;;;;;;1.08;0.30;;;;;;;4.90;65.94;90811.56;5073977;28;20036;-54
2024/01/04 08:33:45;;;;;;;2.40;0.40;;;;;;;4.89;65.71;90829.16;5087695;28;20046;-54
2024/01/04 08:36:11;;;;;;;1.35;0.30;;;;;;;4.93;65.05;90826.59;5080844;28;20103;-55
2024/01/04 08:38:37;;;;;;;2.80;0.30;;;;;;;4.90;64.41;90829.91;5088402;28;20425;-55
2024/01/04 08:41:02;;;;;;;2.08;0.35;;;;;;;4.89;65.58;90826.53;5082729;28;20074;-54
2024/01/04 08:43:28;;;;;;;4.20;0.57;;;;;;;5.15;64.77;90823.19;5079623;28;20151;-54
2024/01/04 08:45:54;;;;;;;1.73;0.30;;;;;;;5.37;63.12;90816.34;5087536;28;20032;-54
2024/01/04 08:48:19;;;;;;;2.30;0.30;;;;;;;5.53;61.56;90834.53;5077457;28;20020;-54
2024/01/04 08:50:45;;;;;;;2.75;0.30;;;;;;;5.64;61.89;90827.56;5075497;28;20028;-54
2024/01/04 08:53:12;;;;;;;2.00;0.40;;;;;;;5.93;60.69;90820.06;5084233;28;20024;-54
2024/01/04 08:55:38;;;;;;;2.13;0.40;;;;;;;6.01;60.88;90819.03;5083826;28;20515;-54
2024/01/04 08:58:04;;;;;;;2.30;0.40;;;;;;;5.95;61.28;90825.69;5066952;28;20111;-54
2024/01/04 09:00:32;;;;;;;1.38;0.20;;;;;;;5.72;61.27;90804.81;5092404;28;20036;-55
2024/01/04 09:02:58;;;;;;;3.53;0.40;;;;;;;5.55;62.40;90816.59;5075271;28;20040;-54
2024/01/04 09:05:24;;;;;;;3.50;0.25;;;;;;;5.50;62.61;90828.16;5077398;28;20085;-55
2024/01/04 09:07:50;;;;;;;3.47;0.40;;;;;;;5.55;62.58;90821.09;5082941;28;20424;-54
2024/01/04 09:10:16;;;;;;;3.60;0.47;;;;;;;5.47;62.45;90812.34;5076978;28;20084;-55
2024/01/04 09:12:42;;;;;;;3.25;0.20;;;;;;;5.44;61.98;90831.41;5075861;28;20049;-54
2024/01/04 09:15:09;;;;;;;3.63;0.40;;;;;;;5.43;63.03;90825.44;5083090;28;20157;-54
2024/01/04 09:17:35;;;;;;;3.35;0.47;;;;;;;5.46;62.86;90819.47;5091786;28;20565;-54
2024/01/04 09:20:00;;;;;;;1.20;0.22;;;;;;;5.49;63.03;90826.63;5083435;28;20111;-54
2024/01/04 09:22:26;;;;;;;2.25;0.30;;;;;;;5.48;62.62;90838.25;5079480;28;20016;-54
2024/01/04 09:24:51;;;;;;;1.90;0.20;;;;;;;5.54;62.15;90841.31;5079568;28;20028;-54
2024/01/04 09:27:17;;;;;;;3.60;0.32;;;;;;;5.60;61.89;90818.91;5071364;28;20024;-55
2024/01/04 09:29:46;;;;;;;2.25;0.10;;;;;;;5.67;61.50;90845.22;5079378;28;20032;-54
2024/01/04 09:32:13;;;;;;;1.88;0.30;;;;;;;5.62;61.79;90871.00;5079710;28;20400;-54
2024/01/04 09:34:38;;;;;;;1.67;0.32;;;;;;;5.50;61.71;90856.22;5078456;28;20070;-54
2024/01/04 09:37:04;;;;;;;1.13;0.20;;;;;;;5.43;62.60;90856.16;5072197;28;20048;-54
2024/01/04 09:39:29;;;;;;;3.05;0.40;;;;;;;5.42;62.08;90862.50;5077180;28;20473;-54
2024/01/04 09:41:56;;;;;;;2.58;0.55;;;;;;;5.37;62.19;90870.66;5081808;28;20029;-54
2024/01/04 09:44:22;;;;;;;2.60;0.40;;;;;;;5.43;63.08;90872.63;5092960;28;20028;-54
2024/01/04 09:46:49;;;;;;;1.73;0.22;;;;;;;5.84;61.64;90869.44;5094830;28;20110;-55
2024/01/04 09:49:14;;;;;;;5.68;0.47;;;;;;;5.95;60.52;90859.81;5071558;28;20115;-54
2024/01/04 09:51:41;;;;;;;1.38;0.28;;;;;;;5.83;61.23;90881.75;5081237;28;20055;-54
2024/01/04 09:54:10;;;;;;;1.13;0.20;;;;;;;5.72;61.28;90870.41;5081791;28;20089;-54
2024/01/04 09:56:42;;;;;;;2.25;0.40;;;;;;;5.71;61.66;90869.63;5072636;28;20024;-55
2024/01/04 09:59:08;;;;;;;2.42;0.25;;;;;;;5.61;61.76;90878.13;5072313;28;20033;-55
2024/01/04 10:01:36;;;;;;;3.95;0.73;;;;;;;5.53;61.62;90871.25;5079584;28;20032;-55
2024/01/04 10:04:11;;;;;;;1.77;0.20;;;;;;;5.42;62.44;90862.50;5052951;28;20108;-54
2024/01/04 10:06:41;;;;;;;2.95;0.35;;;;;;;5.39;62.77;90884.94;5052513;28;20035;-54
2024/01/04 10:09:21;;;;;;;0.93;0.20;;;;;;;5.35;62.48;90873.63;5079437;28;20039;-54
2024/01/04 10:12:05;;;;;;;1.42;0.30;;;;;;;5.44;63.17;90874.13;5072552;28;20583;-54
2024/01/04 10:14:32;;;;;;;2.15;0.30;;;;;;;5.65;63.24;90870.28;5065270;28;20028;-54
2024/01/04 10:16:58;;;;;;;3.70;0.45;;;;;;;5.69;62.79;90866.63;5071516;28;20111;-54
2024/01/04 10:19:25;;;;;;;1.25;0.32;;;;;;;5.58;63.12;90872.81;5091057;28;20176;-54
2024/01/04 10:21:51;;;;;;;2.03;0.30;;;;;;;5.52;64.26;90879.50;5064823;28;20024;-54
2024/01/04 10:24:23;;;;;;;1.13;0.13;;;;;;;5.31;66.66;90891.19;5072931;28;20481;-54
2024/01/04 10:26:59;;;;;;;1.42;0.50;;;;;;;5.04;69.36;90901.63;5070581;28;20101;-54
2024/01/04 10:29:28;;;;;;;1.98;0.20;;;;;;;4.81;71.17;90899.03;5083932;28;20082;-54
2024/01/04 10:32:00;;;;;;;3.15;0.52;;;;;;;4.72;71.75;90884.66;5081097;28;20035;-54
2024/01/04 10:34:26;;;;;;;4.40;1.20;;;;;;;4.62;72.30;90899.06;5089907;28;20439;-54
2024/01/04 10:36:52;;;;;;;2.08;0.75;;;;;;;4.57;72.40;90894.91;5074357;28;20032;-54
2024/01/04 10:39:20;;;;;;;0.47;0.13;;;;;;;4.52;72.67;90897.03;5082741;28;20024;-54
2024/01/04 10:41:59;;;;;;;1.88;0.40;;;;;;;4.51;72.22;90898.13;5082723;28;20115;-55
2024/01/04 10:44:25;;;;;;;1.73;0.50;;;;;;;4.63;72.65;90886.72;5082413;28;20089;-55
2024/01/04 10:46:56;;;;;;;1.67;0.20;;;;;;;4.84;71.29;90894.19;5074257;28;20032;-54
2024/01/04 10:49:25;;;;;;;;;;;;;;;4.97;70.34;90892.94;5048510;28;20036;-55
2024/01/04 10:51:57;;;;;;;0.52;0.25;;;;;;;5.06;69.81;90893.44;5073105;28;19919;-55
2024/01/04 10:54:41;;;;;;;1.48;0.35;;;;;;;5.14;68.37;90897.66;5076025;28;20384;-54
2024/01/04 10:57:08;;;;;;;1.55;0.30;;;;;;;5.11;67.37;90915.97;5073788;28;20067;-54
2024/01/04 10:59:34;;;;;;;0.52;0.15;;;;;;;5.12;66.64;90899.91;5090785;28;20063;-54
2024/01/04 11:02:00;;;;;;;1.90;0.40;;;;;;;5.10;67.06;90890.88;5088855;28;20549;-55
2024/01/04 11:04:27;;;;;;;3.28;0.50;;;;;;;5.14;67.43;90902.91;5070943;28;20036;-54
2024/01/04 11:06:53;;;;;;;1.02;0.20;;;;;;;5.20;66.23;90896.25;5078921;28;20043;-54
2024/01/04 11:09:20;;;;;;;0.82;0.20;;;;;;;5.26;66.30;90904.59;5066824;28;20049;-54
2024/01/04 11:11:46;;;;;;;3.78;1.75;;;;;;;5.35;65.96;90904.34;5080553;28;20028;-54
2024/01/04 11:14:12;;;;;;;13.00;5.18;;;;;;;5.34;65.96;90900.22;5089627;28;20039;-54
2024/01/04 11:16:45;;;;;;;1.00;0.40;;;;;;;5.35;66.21;90899.84;5073953;28;20020;-54
2024/01/04 11:19:16;;;;;;;1.25;0.22;;;;;;;5.35;66.09;90891.22;5091154;28;20153;-54
2024/01/04 11:22:13;;;;;;;1.05;0.20;;;;;;;5.32;66.53;90899.81;5075783;28;20032;-54
2024/01/04 11:25:11;;;;;;;0.98;0.22;;;;;;;5.28;67.41;90897.13;5082778;28;20023;-54
2024/01/04 11:27:36;;;;;;;0.60;0.17;;;;;;;5.14;69.47;90905.53;5065288;28;20049;-54
2024/01/04 11:30:04;;;;;;;0.38;0.30;;;;;;;4.97;71.75;90913.88;5090756;28;20534;-54
2024/01/04 11:32:31;;;;;;;0.40;0.10;;;;;;;4.74;71.30;90898.16;5056199;28;20029;-54
2024/01/04 11:34:57;;;;;;;3.03;0.30;;;;;;;4.67;73.15;90900.66;5064264;28;20040;-53
2024/01/04 11:37:23;;;;;;;1.40;0.40;;;;;;;4.62;73.73;90890.47;5085340;28;20024;-54